FW3819 Cabin John MD US current weather conditions

sailwx.info

Wind from 297 at 6 knots gusting 15

Air temperature 6.1° C
Dewpoint -1.8° C

Last reported at 2020-Jan-28 23:09 UTC.
Time now 2020-Jan-29 00:01 UTC

Location: N 38°59' W 077°09'.
View on Google Maps.

See reports from other nearby stations

  
Tides and Currents Weather Stations Pressure Air Temp Water Temp Dewpoint Dewpoint Depression Visibility Wind Speed Wind Dir Waves Ship Positions
date/time (UTC)wind fromknots sea level pressurealtimeterstation pressurevisibilityair tempwater tempwave heightnotes
2020-Jan-28 23:09 297 6 gusting 15 6.1
2020-Jan-28 23:04 299 4 gusting 12 6.1
2020-Jan-28 22:59 290 6 gusting 15 6.1
2020-Jan-28 22:54 265 6 gusting 17 6.1
2020-Jan-28 22:49 307 7 gusting 17 6.1
2020-Jan-28 22:44 349 6 gusting 14 6.7
2020-Jan-28 22:39 299 6 gusting 11 6.7
2020-Jan-28 22:34 326 7 gusting 17 6.7
2020-Jan-28 22:29 306 7 gusting 17 6.7
2020-Jan-28 22:24 299 6 gusting 13 6.7
2020-Jan-28 22:19 297 6 gusting 13 6.7
2020-Jan-28 22:14 300 7 gusting 13 6.7
2020-Jan-28 22:09 308 7 gusting 13 6.7
2020-Jan-28 22:04 338 7 gusting 13 6.7
2020-Jan-28 21:59 313 6 gusting 13 6.7
2020-Jan-28 21:54 303 6 gusting 12 6.7
2020-Jan-28 21:49 261 7 gusting 15 6.7
2020-Jan-28 21:44 309 7 gusting 15 6.7
2020-Jan-28 21:39 019 8 gusting 17 6.7
2020-Jan-28 21:34 303 8 gusting 18 6.7
2020-Jan-28 21:29 286 6 gusting 18 6.7
2020-Jan-28 21:24 308 6 gusting 11 6.7
2020-Jan-28 21:19 301 6 gusting 11 6.7
2020-Jan-28 21:14 317 6 gusting 14 6.7
2020-Jan-28 21:09 343 7 gusting 14 6.7
2020-Jan-28 21:04 341 8 gusting 18 6.7
2020-Jan-28 20:59 303 9 gusting 19 6.7
2020-Jan-28 20:54 307 7 gusting 19 6.7
2020-Jan-28 20:49 303 4 gusting 9 6.7
2020-Jan-28 20:44 337 4 gusting 9 7.2
2020-Jan-28 20:39 330 6 gusting 13 6.7
2020-Jan-28 20:34 311 6 gusting 13 6.7
2020-Jan-28 20:29 286 6 gusting 18 6.7
2020-Jan-28 20:24 283 8 gusting 18 6.7
2020-Jan-28 20:19 334 7 gusting 18 6.7
2020-Jan-28 20:14 297 6 gusting 17 7.2
2020-Jan-28 20:09 315 6 gusting 19 7.2
2020-Jan-28 20:04 322 7 gusting 19 7.2
2020-Jan-28 19:59 307 7 gusting 17 7.2
2020-Jan-28 19:54 308 7 gusting 17 7.2
2020-Jan-28 19:49 297 7 gusting 17 7.2
2020-Jan-28 19:44 340 8 gusting 18 7.2
2020-Jan-28 19:39 026 7 gusting 20 7.2
2020-Jan-28 19:34 324 7 gusting 20 7.2
2020-Jan-28 19:29 300 8 gusting 24 6.7
2020-Jan-28 19:24 315 9 gusting 24 6.7
2020-Jan-28 19:19 319 9 gusting 19 6.7
2020-Jan-28 19:14 266 7 gusting 19 6.7
2020-Jan-28 19:09 288 6 gusting 15 6.7
2020-Jan-28 19:04 320 7 gusting 15 6.7
2020-Jan-28 18:59 328 9 gusting 17 6.7
2020-Jan-28 18:54 274 9 gusting 17 6.7
2020-Jan-28 18:49 306 7 gusting 17 6.7
2020-Jan-28 18:44 315 6 gusting 15 7.2
2020-Jan-28 18:39 311 6 gusting 13 7.2
2020-Jan-28 18:34 282 6 gusting 17 7.2
2020-Jan-28 18:29 308 6 gusting 17 7.8
2020-Jan-28 18:24 297 8 gusting 24 7.2
2020-Jan-28 18:19 305 8 gusting 24 6.7
2020-Jan-28 18:14 315 8 gusting 19 6.7
2020-Jan-28 18:09 288 7 gusting 19 6.7
2020-Jan-28 18:04 331 6 gusting 17 6.7
2020-Jan-28 17:58 007 6 gusting 17 6.7
2020-Jan-28 17:53 010 6 gusting 16 6.7
2020-Jan-28 17:48 291 6 gusting 13 6.7
2020-Jan-28 17:43 290 7 gusting 19 6.7
2020-Jan-28 17:38 301 8 gusting 19 6.7
2020-Jan-28 17:33 322 9 gusting 19 6.7
2020-Jan-28 17:28 303 8 gusting 19 6.7
2020-Jan-28 17:23 320 8 gusting 18 6.7
2020-Jan-28 17:18 345 6 gusting 18 6.7
2020-Jan-28 17:13 309 6 gusting 15 6.7
2020-Jan-28 17:08 014 8 gusting 17 6.1
2020-Jan-28 17:03 335 8 gusting 19 6.1
2020-Jan-28 16:58 302 8 gusting 22 6.1
2020-Jan-28 16:53 346 8 gusting 22 6.7
2020-Jan-28 16:48 309 9 gusting 22 6.7
2020-Jan-28 16:43 323 11 gusting 26 6.7
2020-Jan-28 16:38 306 12 gusting 26 6.7
2020-Jan-28 16:33 305 10 gusting 25 6.7
2020-Jan-28 16:28 299 8 gusting 21 6.7
2020-Jan-28 16:23 290 8 gusting 19 6.7
2020-Jan-28 16:18 319 7 gusting 19 6.7
2020-Jan-28 16:13 356 6 gusting 18 6.7
2020-Jan-28 16:08 016 4 gusting 13 6.7
2020-Jan-28 16:03 279 6 gusting 18 6.1
2020-Jan-28 15:58 315 10 gusting 19 6.1
2020-Jan-28 15:53 311 11 gusting 25 6.1
2020-Jan-28 15:48 305 11 gusting 29 6.1
2020-Jan-28 15:43 290 10 gusting 29 6.1
2020-Jan-28 15:38 340 10 gusting 20 6.1
2020-Jan-28 15:33 305 9 gusting 20 6.1
2020-Jan-28 15:28 314 6 gusting 15 6.1
2020-Jan-28 15:23 286 4 gusting 12 6.1
2020-Jan-28 15:18 359 6 gusting 19 6.1
2020-Jan-28 15:13 316 6 gusting 14 6.1
2020-Jan-28 15:08 326 6 gusting 13 6.1
2020-Jan-28 15:03 312 6 gusting 13 5.6
2020-Jan-28 14:58 322 6 gusting 12 5.6
2020-Jan-28 14:53 274 4 gusting 12 5.6
2020-Jan-28 14:48 296 3 gusting 12 5.6
2020-Jan-28 14:43 305 6 gusting 13 5.6
2020-Jan-28 14:38 313 7 gusting 17 5.6
2020-Jan-28 14:33 300 7 gusting 18 5.6
2020-Jan-28 14:28 274 7 gusting 18 5.0
2020-Jan-28 14:23 030 6 gusting 15 5.0
2020-Jan-28 14:18 342 6 gusting 17 5.0
2020-Jan-28 14:13 310 6 gusting 17 5.0
2020-Jan-28 14:08 328 4 gusting 15 5.0
2020-Jan-28 14:03 286 3 gusting 8 5.0
2020-Jan-28 13:58 326 3 gusting 8 5.0
2020-Jan-28 13:53 322 3 gusting 7 5.0
2020-Jan-28 13:48 352 4 gusting 8 4.4
2020-Jan-28 13:43 283 4 gusting 10 4.4
2020-Jan-28 13:38 299 4 gusting 10 4.4
2020-Jan-28 13:33 279 4 gusting 9 4.4
2020-Jan-28 13:28 345 4 gusting 9 4.4
2020-Jan-28 13:23 347 3 gusting 9 4.4
2020-Jan-28 13:18 270 3 gusting 9 3.9
2020-Jan-28 13:13 313 4 gusting 9 3.9
2020-Jan-28 13:08 273 3 gusting 8 3.9
2020-Jan-28 13:03 345 3 gusting 8 3.9
2020-Jan-28 12:58 313 2 gusting 7 3.9
2020-Jan-28 12:53 307 2 gusting 6 3.9
2020-Jan-28 12:48 351 3 gusting 6 3.9
2020-Jan-28 12:43 301 2 gusting 8 3.9
2020-Jan-28 12:38 331 2 gusting 8 3.9
2020-Jan-28 12:33 261 3 gusting 8 3.9
2020-Jan-28 12:28 297 4 gusting 8 3.9
2020-Jan-28 12:23 310 6 gusting 10 3.9
2020-Jan-28 12:18 326 6 gusting 12 3.9
2020-Jan-28 12:13 338 4 gusting 12 3.9
2020-Jan-28 12:07 290 4 gusting 10 3.9
2020-Jan-28 12:02 282 3 gusting 8 3.9
2020-Jan-28 11:57 307 3 gusting 8 3.9
2020-Jan-28 11:52 315 3 gusting 9 3.9
2020-Jan-28 11:47 307 4 gusting 9 3.9
2020-Jan-28 11:42 303 4 gusting 10 3.9
2020-Jan-28 11:37 299 4 gusting 10 3.9
2020-Jan-28 11:32 338 4 gusting 11 3.9
2020-Jan-28 11:27 289 3 gusting 11 3.9
2020-Jan-28 11:22 277 3 gusting 10 3.9
2020-Jan-28 11:17 347 4 gusting 10 3.9
2020-Jan-28 11:12 322 4 gusting 9 3.9
2020-Jan-28 11:07 315 4 gusting 10 3.9
2020-Jan-28 11:02 317 6 gusting 11 3.9
2020-Jan-28 10:57 319 6 gusting 11 3.9
2020-Jan-28 10:52 310 4 gusting 11 3.9
2020-Jan-28 10:47 336 6 gusting 13 3.9
2020-Jan-28 10:42 290 6 gusting 13 3.9
2020-Jan-28 10:37 314 4 gusting 11 3.9
2020-Jan-28 10:32 286 3 gusting 11 3.9
2020-Jan-28 10:27 344 3 gusting 10 3.9
2020-Jan-28 10:22 330 6 gusting 14 3.9
2020-Jan-28 10:17 297 4 gusting 14 3.9
2020-Jan-28 10:12 288 2 gusting 12 3.9
2020-Jan-28 10:07 324 3 gusting 11 3.9
2020-Jan-28 10:02 334 6 gusting 13 3.9
2020-Jan-28 09:57 303 6 gusting 13 3.9
2020-Jan-28 09:52 338 4 gusting 10 3.9
2020-Jan-28 09:47 284 4 gusting 12 3.9
2020-Jan-28 09:42 003 6 gusting 12 3.9
2020-Jan-28 09:37 307 6 gusting 11 4.4
2020-Jan-28 09:32 303 6 gusting 12 4.4
2020-Jan-28 09:27 317 6 gusting 12 4.4
2020-Jan-28 09:22 330 4 gusting 8 4.4
2020-Jan-28 09:17 314 6 gusting 11 4.4
2020-Jan-28 09:12 314 6 gusting 11 4.4
2020-Jan-28 09:07 299 3 gusting 12 4.4
2020-Jan-28 09:02 335 2 gusting 12 4.4
2020-Jan-28 08:57 191 3 gusting 7 4.4
2020-Jan-28 08:52 344 3 gusting 7 4.4
2020-Jan-28 08:47 303 3 gusting 9 4.4
2020-Jan-28 08:42 330 3 gusting 9 4.4
2020-Jan-28 08:37 286 3 gusting 9 4.4
2020-Jan-28 08:32 330 3 gusting 9 4.4
2020-Jan-28 08:27 315 3 gusting 9 4.4
2020-Jan-28 08:22 351 3 gusting 9 4.4
2020-Jan-28 08:17 286 4 gusting 9 4.4
2020-Jan-28 08:12 335 4 gusting 11 4.4
2020-Jan-28 08:07 334 3 gusting 11 4.4
2020-Jan-28 08:02 305 3 gusting 9 4.4
2020-Jan-28 07:57 356 3 gusting 9 4.4
2020-Jan-28 07:52 302 3 gusting 9 4.4
2020-Jan-28 07:47 330 4 gusting 12 4.4
2020-Jan-28 07:42 296 3 gusting 12 4.4
2020-Jan-28 07:37 303 2 gusting 7 4.4
2020-Jan-28 07:32 303 2 gusting 7 4.4
2020-Jan-28 07:27 335 2 gusting 8 4.4
2020-Jan-28 07:22 322 2 gusting 8 4.4
2020-Jan-28 07:17 211 3 gusting 7 4.4
2020-Jan-28 07:12 284 3 gusting 9 4.4
2020-Jan-28 07:07 291 3 gusting 10 4.4
2020-Jan-28 07:02 322 3 gusting 10 4.4
2020-Jan-28 06:57 320 3 gusting 8 4.4
2020-Jan-28 06:52 326 3 gusting 8 4.4
2020-Jan-28 06:47 330 3 gusting 9 4.4
2020-Jan-28 06:42 335 4 gusting 9 4.4
2020-Jan-28 06:37 288 4 gusting 9 4.4
2020-Jan-28 06:32 306 3 gusting 7 4.4
2020-Jan-28 06:27 305 3 gusting 8 4.4
2020-Jan-28 06:22 322 3 gusting 8 4.4
2020-Jan-28 06:17 003 4 gusting 9 4.4
2020-Jan-28 06:12 330 4 gusting 10 4.4
2020-Jan-28 06:07 342 4 gusting 10 4.4
2020-Jan-28 06:02 302 3 gusting 8 4.4
2020-Jan-28 05:57 243 4 gusting 10 4.4
2020-Jan-28 05:52 324 6 gusting 13 4.4
2020-Jan-28 05:47 332 4 gusting 13 4.4
2020-Jan-28 05:41 322 4 gusting 14 4.4
2020-Jan-28 05:37 337 3 gusting 14 4.4
2020-Jan-28 05:31 305 4 gusting 10 4.4
2020-Jan-28 05:26 302 4 gusting 10 4.4
2020-Jan-28 05:22 330 6 gusting 11 5.0
2020-Jan-28 05:17 320 6 gusting 12 5.0
2020-Jan-28 05:11 303 6 gusting 12 5.0
2020-Jan-28 05:07 319 7 gusting 12 5.0
2020-Jan-28 05:01 303 6 gusting 13 5.0
2020-Jan-28 04:57 317 4 gusting 13 5.0
2020-Jan-28 04:51 315 4 gusting 15 5.0
2020-Jan-28 04:46 359 6 gusting 15 5.0
2020-Jan-28 04:41 283 6 gusting 14 5.0
2020-Jan-28 04:36 283 6 gusting 13 5.0
2020-Jan-28 04:32 296 6 gusting 12 5.0
2020-Jan-28 04:26 330 7 gusting 19 5.0
2020-Jan-28 04:21 310 7 gusting 19 5.0
2020-Jan-28 04:16 299 6 gusting 12 5.0
2020-Jan-28 04:11 301 6 gusting 11 5.0
2020-Jan-28 04:06 301 6 gusting 11 5.0
2020-Jan-28 04:01 294 6 gusting 11 5.0
2020-Jan-28 03:56 283 4 gusting 11 5.0
2020-Jan-28 03:51 322 4 gusting 12 5.0
2020-Jan-28 03:46 315 6 gusting 12 5.0
2020-Jan-28 03:41 022 6 gusting 9 5.0
2020-Jan-28 03:36 261 6 gusting 19 5.0
2020-Jan-28 03:31 299 6 gusting 19 5.0
2020-Jan-28 03:26 299 6 gusting 12 5.0
2020-Jan-28 03:21 315 6 gusting 12 5.0
2020-Jan-28 03:16 305 6 gusting 12 5.0
2020-Jan-28 03:11 286 6 gusting 13 5.0
2020-Jan-28 03:06 282 6 gusting 13 5.0
2020-Jan-28 03:01 272 6 gusting 11 5.0
2020-Jan-28 02:56 308 4 gusting 11 5.0
2020-Jan-28 02:51 301 4 gusting 11 5.0
2020-Jan-28 02:46 258 3 gusting 8 5.0
2020-Jan-28 02:41 294 4 gusting 8 5.0
2020-Jan-28 02:36 286 3 gusting 8 5.6
2020-Jan-28 02:31 302 4 gusting 8 5.6
2020-Jan-28 02:26 270 4 gusting 8 5.6
2020-Jan-28 02:21 294 4 gusting 9 5.6
2020-Jan-28 02:16 294 4 gusting 9 5.6
2020-Jan-28 02:11 277 3 gusting 7 5.6
2020-Jan-28 02:06 311 3 gusting 7 5.6
2020-Jan-28 02:01 284 3 gusting 7 5.6
2020-Jan-28 01:56 284 3 gusting 6 5.6
2020-Jan-28 01:51 303 3 gusting 7 5.6
2020-Jan-28 01:46 308 4 gusting 10 5.6
2020-Jan-28 01:41 319 6 gusting 10 5.6
2020-Jan-28 01:36 286 6 gusting 10 5.6
2020-Jan-28 01:31 307 4 gusting 10 5.6
2020-Jan-28 01:26 263 4 gusting 9 5.6
2020-Jan-28 01:21 319 3 gusting 9 5.6
2020-Jan-28 01:16 306 3 gusting 8 5.6
2020-Jan-28 01:11 305 3 gusting 8 5.6
2020-Jan-28 01:06 315 3 gusting 8 5.6
2020-Jan-28 01:01 312 4 gusting 12 5.6
2020-Jan-28 00:56 297 4 gusting 12 5.6
2020-Jan-28 00:51 345 6 gusting 10 5.6
2020-Jan-28 00:46 294 6 gusting 10 5.6
2020-Jan-28 00:41 297 6 gusting 11 5.6
2020-Jan-28 00:36 305 6 gusting 11 5.6
2020-Jan-28 00:31 297 6 gusting 10 5.6
2020-Jan-28 00:26 335 6 gusting 11 5.6
2020-Jan-28 00:21 281 6 gusting 13 5.6
2020-Jan-28 00:16 290 6 gusting 13 6.1
2020-Jan-28 00:11 306 4 gusting 12 6.1
2020-Jan-28 00:05 301 4 gusting 12 6.1
2020-Jan-28 00:00 299 4 gusting 12 6.1
2020-Jan-27 23:55 297 6 gusting 12 6.1
2020-Jan-27 23:50 292 6 gusting 15 6.1
2020-Jan-27 23:45 302 6 gusting 15 6.1
2020-Jan-27 23:41 320 6 gusting 15 6.1
2020-Jan-27 23:35 332 7 gusting 18 6.7
2020-Jan-27 23:30 312 7 gusting 18 6.7
2020-Jan-27 23:25 305 6 gusting 17 6.7
2020-Jan-27 23:20 319 7 gusting 18 6.7
2020-Jan-27 23:15 297 6 gusting 18 6.7
2020-Jan-27 23:10 299 6 gusting 17 6.7
2020-Jan-27 23:05 307 6 gusting 17 6.7
2020-Jan-27 23:00 276 6 gusting 13 6.7
2020-Jan-27 22:55 297 6 gusting 13 6.7
2020-Jan-27 22:50 297 6 gusting 13 6.7
2020-Jan-27 22:45 319 6 gusting 13 6.7
2020-Jan-27 22:40 320 6 gusting 12 6.7
2020-Jan-27 22:35 284 7 gusting 15 6.7
2020-Jan-27 22:30 280 7 gusting 15 6.7
2020-Jan-27 22:25 278 6 gusting 15 6.7
2020-Jan-27 22:20 296 6 gusting 15 6.7
2020-Jan-27 22:15 314 6 gusting 15 7.2
2020-Jan-27 22:10 302 6 gusting 14 6.7
2020-Jan-27 22:05 292 6 gusting 15 7.2
2020-Jan-27 22:00 335 7 gusting 15 7.2
2020-Jan-27 21:55 324 6 gusting 15 7.2
2020-Jan-27 21:50 290 6 gusting 15 7.2
2020-Jan-27 21:45 292 6 gusting 15 7.2
2020-Jan-27 21:40 303 6 gusting 15 7.2
2020-Jan-27 21:35 016 8 gusting 18 7.2
2020-Jan-27 21:30 297 6 gusting 18 7.2
2020-Jan-27 21:25 286 4 gusting 10 7.2
2020-Jan-27 21:20 192 4 gusting 12 7.2
2020-Jan-27 21:15 292 6 gusting 20 7.8
2020-Jan-27 21:10 337 7 gusting 20 7.8
2020-Jan-27 21:05 317 7 gusting 17 7.8
2020-Jan-27 21:00 342 7 gusting 17 7.8
2020-Jan-27 20:55 328 6 gusting 17 7.8
2020-Jan-27 20:50 304 7 gusting 19 7.8
2020-Jan-27 20:45 313 7 gusting 19 7.8
2020-Jan-27 20:40 335 6 gusting 18 7.8
2020-Jan-27 20:35 315 6 gusting 13 7.8
2020-Jan-27 20:30 009 6 gusting 19 7.8
2020-Jan-27 20:25 266 6 gusting 19 8.3
2020-Jan-27 20:20 338 6 gusting 15 8.3
2020-Jan-27 20:15 274 8 gusting 19 8.3
2020-Jan-27 20:10 286 7 gusting 19 8.3
2020-Jan-27 20:05 292 8 gusting 19 8.3
2020-Jan-27 20:00 290 10 gusting 22 8.3
2020-Jan-27 19:55 286 8 gusting 22 8.3
2020-Jan-27 19:50 330 7 gusting 18 8.3
2020-Jan-27 19:45 328 8 gusting 20 8.3
2020-Jan-27 19:40 303 7 gusting 20 8.3
2020-Jan-27 19:35 311 8 gusting 18 8.3
2020-Jan-27 19:30 324 8 gusting 18 8.3
2020-Jan-27 19:25 301 9 gusting 21 8.3
2020-Jan-27 19:20 327 6 gusting 21 8.3
2020-Jan-27 19:15 286 6 gusting 14 8.3
2020-Jan-27 19:10 292 7 gusting 15 8.3
2020-Jan-27 19:00 301 4 gusting 11 8.3
2020-Jan-27 18:55 238 4 gusting 14 8.3
2020-Jan-27 18:50 304 3 gusting 14 8.3
2020-Jan-27 18:40 306 4 gusting 11 8.3
2020-Jan-27 18:30 318 3 gusting 11 8.3
2020-Jan-27 18:25 357 4 gusting 11 8.3
2020-Jan-27 18:20 288 6 gusting 17 8.3
2020-Jan-27 18:15 232 7 gusting 17 8.3
2020-Jan-27 18:10 286 6 gusting 13 8.3
2020-Jan-27 18:05 255 6 gusting 11 8.3
2020-Jan-27 18:00 270 6 gusting 13 8.3
2020-Jan-27 17:55 322 7 gusting 14 8.3
2020-Jan-27 17:50 297 7 gusting 14 8.3
2020-Jan-27 17:45 299 7 gusting 13 8.3
2020-Jan-27 17:40 353 8 gusting 14 8.3
2020-Jan-27 17:35 302 7 gusting 14 8.3
2020-Jan-27 17:30 324 6 gusting 19 8.3
2020-Jan-27 17:25 285 7 gusting 19 8.3
2020-Jan-27 17:20 010 7 gusting 18 8.3
2020-Jan-27 17:15 301 6 gusting 18 8.3
2020-Jan-27 17:10 330 6 gusting 12 8.3
2020-Jan-27 17:05 334 6 gusting 11 8.3
2020-Jan-27 17:00 343 6 gusting 14 8.3
2020-Jan-27 16:55 315 6 gusting 14 8.3
2020-Jan-27 16:50 286 6 gusting 13 8.3
2020-Jan-27 16:45 311 6 gusting 13 8.3
2020-Jan-27 16:40 315 6 gusting 18 8.3
2020-Jan-27 16:35 303 7 gusting 18 8.9
2020-Jan-27 16:29 297 8 gusting 19 8.9
2020-Jan-27 16:25 315 7 gusting 19 8.9
2020-Jan-27 16:19 274 6 gusting 14 8.3
2020-Jan-27 16:14 282 6 gusting 13 7.8
2020-Jan-27 16:09 224 4 gusting 7 7.2
2020-Jan-27 16:05 256 4 gusting 9 7.2
2020-Jan-27 15:59 232 6 gusting 9 7.2
2020-Jan-27 15:54 244 6 gusting 9 7.2
2020-Jan-27 15:49 240 6 gusting 10 7.2
2020-Jan-27 15:44 254 6 gusting 10 7.2
2020-Jan-27 15:39 288 6 gusting 10 7.2
2020-Jan-27 15:34 254 6 gusting 10 6.7
2020-Jan-27 15:29 272 6 gusting 11 6.7
2020-Jan-27 15:24 271 6 gusting 11 6.7
2020-Jan-27 15:19 249 6 gusting 11 6.7
2020-Jan-27 15:14 238 4 gusting 11 6.7
2020-Jan-27 15:09 261 3 gusting 6 6.7
2020-Jan-27 15:04 218 4 gusting 10 6.7
2020-Jan-27 14:59 230 4 gusting 10 6.7
2020-Jan-27 14:54 254 3 gusting 8 6.7
2020-Jan-27 14:49 260 2 gusting 8 6.1
2020-Jan-27 14:44 235 0 gusting 4 6.1
2020-Jan-27 14:39 159 1 gusting 4 6.1
2020-Jan-27 14:34 167 1 gusting 7 5.6
2020-Jan-27 14:29 158 1 gusting 7 5.6
2020-Jan-27 14:24 158 0 gusting 3 5.6
2020-Jan-27 14:19 126 1 gusting 6 5.6
2020-Jan-27 14:14 197 2 gusting 6 5.6
2020-Jan-27 14:09 223 2 gusting 6 5.0
2020-Jan-27 14:04 230 1 gusting 6 5.0
2020-Jan-27 13:59 235 1 gusting 4 4.4
2020-Jan-27 13:54 258 0 gusting 4 4.4
2020-Jan-27 13:49 201 1 gusting 4 4.4
2020-Jan-27 13:44 215 2 gusting 6 3.9
2020-Jan-27 13:39 191 3 gusting 6 2.8
2020-Jan-27 13:34 237 3 gusting 7 2.8
2020-Jan-27 13:29 243 4 gusting 9 2.8
2020-Jan-27 13:24 248 4 gusting 9 2.2
2020-Jan-27 13:19 207 2 gusting 6 1.7
2020-Jan-27 13:14 206 1 gusting 4 1.7
2020-Jan-27 13:09 191 1 gusting 4 1.1
2020-Jan-27 13:04 202 1 gusting 6 1.1
2020-Jan-27 12:59 116 1 gusting 6 0.6
2020-Jan-27 12:54 210 1 gusting 3 0.6
2020-Jan-27 12:49 227 1 gusting 6 0.6
2020-Jan-27 12:44 232 1 gusting 6 -0.0
2020-Jan-27 12:39 209 1 gusting 6 -0.0
2020-Jan-27 12:34 214 0 gusting 6 -0.0
2020-Jan-27 12:29 223 0 gusting 4 -0.6
2020-Jan-27 12:24 202 0 gusting 3 -0.6
2020-Jan-27 12:19 243 0 gusting 1 -0.6
2020-Jan-27 12:14 184 0 gusting 1 -0.6
2020-Jan-27 12:09 132 0 gusting 1 -0.6
2020-Jan-27 12:04 133 0 gusting 3 -0.6
2020-Jan-27 11:59 167 0 gusting 3 -0.6
2020-Jan-27 11:54 168 0 gusting 3 -0.6
2020-Jan-27 11:49 132 0 gusting 3 -0.6
2020-Jan-27 11:44 202 0 gusting 3 -0.6
2020-Jan-27 11:39 116 0 gusting 3 -0.6
2020-Jan-27 11:34 132 0 gusting 1 -0.6
2020-Jan-27 11:29 158 0 gusting 1 -0.6
2020-Jan-27 11:24 145 -0.6
2020-Jan-27 11:18 158 -0.6
2020-Jan-27 11:14 116 -0.6
2020-Jan-27 11:08 286 -0.6
2020-Jan-27 11:03 303 0 gusting 3 -0.6
2020-Jan-27 10:58 158 0 gusting 3 -0.6
2020-Jan-27 10:54 176 0 gusting 3 -0.6
2020-Jan-27 10:48 202 -0.6
2020-Jan-27 10:43 014 -0.6
2020-Jan-27 10:38 356 0 gusting 3 -0.6
2020-Jan-27 10:33 132 0 gusting 3 -0.6
2020-Jan-27 10:28 164 0 gusting 1 -0.6
2020-Jan-27 10:23 202 0 gusting 0 -0.6
2020-Jan-27 10:18 039 0 gusting 1 -0.6
2020-Jan-27 10:13 356 0 gusting 1 -0.6
2020-Jan-27 10:08 347 -0.6
2020-Jan-27 10:03 218 -0.6
2020-Jan-27 09:58 270 0 gusting 1 -0.0
2020-Jan-27 09:53 312 0 gusting 0 -0.0
2020-Jan-27 09:48 356 -0.0
2020-Jan-27 09:43 158 -0.0
2020-Jan-27 09:38 158 -0.0
2020-Jan-27 09:33 356 -0.0
2020-Jan-27 09:28 218 -0.0
2020-Jan-27 09:23 243 0.6
2020-Jan-27 09:18 315 0 gusting 1 0.6
2020-Jan-27 09:13 330 0 gusting 1 0.6
2020-Jan-27 09:08 356 0.6
2020-Jan-27 09:03 330 0.6
2020-Jan-27 08:58 158 0.6
2020-Jan-27 08:53 158 0 gusting 1 0.6
2020-Jan-27 08:48 116 0 gusting 1 0.6
2020-Jan-27 08:43 191 0 gusting 1 0.6
2020-Jan-27 08:38 116 0.6
2020-Jan-27 08:33 202 1.1
2020-Jan-27 08:28 099 0 gusting 1 1.1
2020-Jan-27 08:23 243 0 gusting 1 1.1
2020-Jan-27 08:18 176 1.1
2020-Jan-27 08:13 243 1.1
2020-Jan-27 08:08 074 1.1
2020-Jan-27 08:03 116 1.1
2020-Jan-27 07:58 330 1.7
2020-Jan-27 07:53 132 1.7
2020-Jan-27 07:48 141 1.7
2020-Jan-27 07:43 116 1.7
2020-Jan-27 07:38 116 0 gusting 1 1.7
2020-Jan-27 07:33 158 0 gusting 1 1.7
2020-Jan-27 07:28 132 0 gusting 1 1.7
2020-Jan-27 07:23 099 0 gusting 1 1.7
2020-Jan-27 07:18 116 0 gusting 4 1.7
2020-Jan-27 07:13 158 0 gusting 4 1.7
2020-Jan-27 07:08 158 0 gusting 3 1.7
2020-Jan-27 07:03 202 0 gusting 3 1.1
2020-Jan-27 06:58 292 1 gusting 4 1.1
2020-Jan-27 06:53 319 0 gusting 4 1.1
2020-Jan-27 06:48 303 0 gusting 2 1.1
2020-Jan-27 06:43 315 0 gusting 3 1.1
2020-Jan-27 06:38 286 0 gusting 3 1.1
2020-Jan-27 06:33 243 0 gusting 3 1.1
2020-Jan-27 06:28 218 0 gusting 3 1.1
2020-Jan-27 06:23 243 1.1
2020-Jan-27 06:18 207 1.1
2020-Jan-27 06:13 330 1.1
2020-Jan-27 06:08 116 0 gusting 1 1.1
2020-Jan-27 06:03 074 1.1
2020-Jan-27 05:58 003 1.1
2020-Jan-27 05:53 330 0 gusting 3 1.1
2020-Jan-27 05:48 243 0 gusting 3 1.1
2020-Jan-27 05:43 218 0 gusting 3 1.7
2020-Jan-27 05:38 227 0 gusting 3 1.7
2020-Jan-27 05:33 286 0 gusting 3 1.7
2020-Jan-27 05:28 330 0 gusting 3 1.7
2020-Jan-27 05:23 243 0 gusting 4 1.7
2020-Jan-27 05:18 074 0 gusting 4 2.2
2020-Jan-27 05:13 280 0 gusting 3 2.2
2020-Jan-27 05:08 228 0 gusting 4 2.2
2020-Jan-27 05:02 297 0 gusting 4 2.2
2020-Jan-27 04:58 116 0 gusting 3 2.8
2020-Jan-27 04:52 116 0 gusting 3 2.8
2020-Jan-27 04:47 303 0 gusting 1 2.8
2020-Jan-27 04:42 308 0 gusting 1 2.8
2020-Jan-27 04:37 277 0 gusting 1 3.3
2020-Jan-27 04:32 330 0 gusting 1 3.3
2020-Jan-27 04:27 294 0 gusting 1 3.3
2020-Jan-27 04:22 315 0 gusting 1 3.3
2020-Jan-27 04:17 202 3.9
2020-Jan-27 04:12 116 0 gusting 1 3.9
2020-Jan-27 04:07 202 0 gusting 1 3.9
2020-Jan-27 04:02 209 0 gusting 1 4.4
2020-Jan-27 03:57 230 4.4
2020-Jan-27 03:52 211 4.4
2020-Jan-27 03:47 191 4.4
2020-Jan-27 03:42 243 4.4
2020-Jan-27 03:37 099 5.0
2020-Jan-27 03:32 158 0 gusting 3 5.0
2020-Jan-27 03:27 243 1 gusting 4 5.0
2020-Jan-27 03:22 266 2 gusting 6 5.0
2020-Jan-27 03:17 230 1 gusting 6 5.0
2020-Jan-27 03:12 319 0 gusting 5 5.0
2020-Jan-27 03:07 292 1 gusting 5 5.0
2020-Jan-27 03:02 222 2 gusting 6 5.0
2020-Jan-27 02:57 250 2 gusting 6 5.0
2020-Jan-27 02:52 202 1 gusting 4 5.0
2020-Jan-27 02:47 232 1 gusting 4 5.0
2020-Jan-27 02:42 243 1 gusting 4 5.0
2020-Jan-27 02:37 255 1 gusting 6 5.0
2020-Jan-27 02:32 275 1 gusting 6 5.0
2020-Jan-27 02:27 091 1 gusting 6 5.0
2020-Jan-27 02:22 319 0 gusting 6 5.0
2020-Jan-27 02:17 286 0 gusting 4 5.0
2020-Jan-27 02:12 308 1 gusting 6 5.0
2020-Jan-27 02:07 223 3 gusting 9 5.0
2020-Jan-27 02:02 256 4 gusting 9 5.0
2020-Jan-27 01:57 311 3 gusting 9 5.6
2020-Jan-27 01:52 227 3 gusting 7 5.6
2020-Jan-27 01:47 312 3 gusting 8 5.6
2020-Jan-27 01:42 315 3 gusting 9 5.6
2020-Jan-27 01:37 297 3 gusting 9 5.6
2020-Jan-27 01:32 5.6
2020-Jan-27 01:27 261 6 gusting 11 5.6
2020-Jan-27 01:22 305 4 gusting 11 5.6
2020-Jan-27 01:17 314 4 gusting 10 5.6
2020-Jan-27 01:12 320 4 gusting 10 5.6
2020-Jan-27 01:07 297 3 gusting 13 5.6
2020-Jan-27 01:02 313 3 gusting 13 5.6
2020-Jan-27 00:57 014 3 gusting 9 5.6
2020-Jan-27 00:52 009 4 gusting 9 5.6
2020-Jan-27 00:47 326 4 gusting 13 5.6
2020-Jan-27 00:42 359 6 gusting 13 5.6
2020-Jan-27 00:37 314 6 gusting 14 6.1
2020-Jan-27 00:32 330 6 gusting 14 6.1
2020-Jan-27 00:27 299 4 gusting 11 6.1
2020-Jan-27 00:22 017 4 gusting 10 6.1
2020-Jan-27 00:16 356 4 gusting 10 6.1
2020-Jan-27 00:12 330 6 gusting 13 6.1
2020-Jan-27 00:07 301 7 gusting 18 6.1
2020-Jan-27 00:02 291 6 gusting 18 6.1